createdAt,value
2018-10-09T00:00:49.437Z,17.70
2018-10-09T00:01:53.498Z,17.27
2018-10-09T00:02:57.665Z,16.90
2018-10-09T00:04:01.784Z,19.15
2018-10-09T00:05:06.207Z,18.55
2018-10-09T00:06:10.383Z,19.10
2018-10-09T00:07:14.476Z,17.95
2018-10-09T00:08:18.579Z,18.45
2018-10-09T00:09:22.659Z,19.60
2018-10-09T00:10:26.908Z,19.10
2018-10-09T00:11:30.984Z,18.20
2018-10-09T00:12:35.154Z,19.25
2018-10-09T00:13:39.546Z,18.95
2018-10-09T00:14:43.701Z,18.12
2018-10-09T00:15:47.710Z,17.87
2018-10-09T00:16:51.801Z,18.50
2018-10-09T00:17:55.914Z,18.77
2018-10-09T00:19:00.026Z,17.80
2018-10-09T00:20:04.406Z,18.80
2018-10-09T00:21:08.511Z,17.77
2018-10-09T00:22:12.635Z,17.82
2018-10-09T00:23:16.783Z,18.67
2018-10-09T00:24:20.901Z,18.95
2018-10-09T00:25:25.318Z,19.32
2018-10-09T00:26:29.515Z,18.32
2018-10-09T00:27:33.684Z,16.52
2018-10-09T00:28:37.750Z,18.23
2018-10-09T00:29:41.795Z,17.73
2018-10-09T00:30:45.868Z,18.48
2018-10-09T00:31:49.994Z,18.07
2018-10-09T00:32:54.332Z,18.73
2018-10-09T00:33:58.406Z,18.60
2018-10-09T00:35:02.451Z,19.27
2018-10-09T00:36:06.811Z,19.67
2018-10-09T00:37:10.852Z,20.72
2018-10-09T00:38:14.966Z,20.37
2018-10-09T00:39:18.973Z,19.15
2018-10-09T00:40:23.101Z,20.50
2018-10-09T00:41:27.149Z,20.35
2018-10-09T00:42:31.271Z,20.37
2018-10-09T00:43:35.365Z,20.52
2018-10-09T00:44:39.527Z,20.37
2018-10-09T00:45:43.658Z,20.40
2018-10-09T00:46:48.011Z,20.05
2018-10-09T00:47:52.090Z,19.30
2018-10-09T00:48:56.252Z,20.00
2018-10-09T00:50:00.485Z,19.65
2018-10-09T00:51:04.597Z,20.35
2018-10-09T00:52:08.695Z,19.92
2018-10-09T00:53:12.783Z,19.80
2018-10-09T00:54:16.879Z,19.50
2018-10-09T00:55:20.972Z,18.07
2018-10-09T00:56:25.127Z,18.12
2018-10-09T00:57:29.177Z,19.05
2018-10-09T00:58:33.449Z,20.32
2018-10-09T00:59:37.677Z,18.77
2018-10-09T01:00:41.801Z,19.35
2018-10-09T01:01:45.888Z,19.35
2018-10-09T01:02:50.104Z,19.37
2018-10-09T01:03:54.303Z,18.17
2018-10-09T01:04:58.386Z,17.82
2018-10-09T01:06:02.593Z,18.67
2018-10-09T01:07:06.904Z,17.48
2018-10-09T01:08:11.138Z,17.92
2018-10-09T01:09:15.316Z,18.45
2018-10-09T01:10:19.466Z,17.70
2018-10-09T01:11:23.685Z,17.75
2018-10-09T01:12:27.879Z,17.37
2018-10-09T01:13:31.921Z,17.75
2018-10-09T01:14:36.029Z,17.90
2018-10-09T01:15:40.320Z,16.65
2018-10-09T01:16:44.439Z,17.32
2018-10-09T01:17:48.597Z,17.90
2018-10-09T01:18:52.666Z,16.10
2018-10-09T01:19:56.804Z,17.05
2018-10-09T01:21:00.877Z,16.50
2018-10-09T01:22:05.111Z,17.48
2018-10-09T01:23:09.181Z,17.20
2018-10-09T01:24:13.259Z,17.35
2018-10-09T01:25:17.443Z,17.25
2018-10-09T01:26:21.583Z,17.50
2018-10-09T01:27:25.704Z,16.85
2018-10-09T01:28:29.905Z,16.15
2018-10-09T01:29:34.024Z,15.30
2018-10-09T01:30:38.275Z,17.10
2018-10-09T01:31:42.669Z,16.27
2018-10-09T01:32:46.735Z,17.07
2018-10-09T01:33:50.800Z,16.85
2018-10-09T01:34:54.899Z,16.57
2018-10-09T01:35:59.040Z,16.27
2018-10-09T01:37:03.144Z,16.75
2018-10-09T01:38:07.205Z,15.20
2018-10-09T01:39:11.366Z,15.32
2018-10-09T01:40:15.481Z,14.10
2018-10-09T01:41:19.521Z,14.80
2018-10-09T01:42:23.944Z,15.90
2018-10-09T01:43:34.120Z,14.95
2018-10-09T01:44:44.326Z,14.75
2018-10-09T01:45:54.323Z,14.03
2018-10-09T01:47:04.360Z,14.63
2018-10-09T01:48:08.428Z,14.47
2018-10-09T01:49:12.579Z,14.33
2018-10-09T01:50:16.755Z,14.68
2018-10-09T01:51:20.985Z,14.33
2018-10-09T01:52:25.156Z,14.60
2018-10-09T01:53:29.242Z,14.35
2018-10-09T01:54:33.300Z,15.45
2018-10-09T01:55:37.481Z,14.98
2018-10-09T01:56:41.650Z,14.40
2018-10-09T01:57:45.804Z,13.43
2018-10-09T01:58:49.841Z,13.85
2018-10-09T01:59:54.024Z,12.85
2018-10-09T02:00:58.118Z,13.70
2018-10-09T02:02:02.299Z,13.78
2018-10-09T02:03:06.597Z,13.60
2018-10-09T02:04:10.729Z,12.80
2018-10-09T02:05:14.908Z,14.07
2018-10-09T02:06:19.142Z,13.85
2018-10-09T02:07:23.355Z,15.25
2018-10-09T02:08:27.458Z,14.43
2018-10-09T02:09:31.544Z,14.63
2018-10-09T02:10:35.837Z,14.83
2018-10-09T02:11:40.013Z,14.55
2018-10-09T02:12:44.147Z,14.78
2018-10-09T02:13:48.259Z,15.18
2018-10-09T02:14:52.353Z,14.45
2018-10-09T02:15:56.512Z,14.50
2018-10-09T02:17:00.702Z,15.65
2018-10-09T02:18:04.765Z,15.35
2018-10-09T02:19:08.931Z,14.65
2018-10-09T02:20:13.068Z,16.10
2018-10-09T02:21:17.129Z,14.07
2018-10-09T02:22:21.262Z,13.58
2018-10-09T02:23:25.322Z,14.50
2018-10-09T02:24:29.523Z,14.20
2018-10-09T02:25:33.684Z,14.47
2018-10-09T02:26:37.753Z,15.68
2018-10-09T02:27:41.998Z,14.30
2018-10-09T02:28:46.148Z,13.88
2018-10-09T02:29:50.346Z,15.00
2018-10-09T02:30:54.578Z,14.70
2018-10-09T02:31:58.745Z,14.05
2018-10-09T02:33:02.996Z,14.28
2018-10-09T02:34:07.098Z,14.35
2018-10-09T02:35:11.239Z,14.43
2018-10-09T02:36:15.313Z,13.93
2018-10-09T02:37:19.456Z,14.87
2018-10-09T02:38:23.635Z,14.60
2018-10-09T02:39:27.667Z,15.60
2018-10-09T02:40:31.881Z,15.55
2018-10-09T02:41:36.104Z,15.85
2018-10-09T02:42:40.195Z,13.85
2018-10-09T02:43:44.331Z,14.93
2018-10-09T02:44:48.497Z,15.05
2018-10-09T02:45:52.628Z,14.87
2018-10-09T02:46:56.813Z,16.15
2018-10-09T02:48:00.866Z,15.45
2018-10-09T02:49:05.126Z,16.17
2018-10-09T02:50:09.229Z,15.28
2018-10-09T02:51:13.364Z,16.00
2018-10-09T02:52:17.424Z,16.20
2018-10-09T02:53:21.496Z,15.40
2018-10-09T02:54:25.613Z,15.45
2018-10-09T02:55:29.805Z,14.15
2018-10-09T02:56:33.928Z,15.10
2018-10-09T02:57:38.127Z,15.63
2018-10-09T02:58:42.205Z,15.58
2018-10-09T02:59:46.421Z,14.93
2018-10-09T03:00:50.552Z,15.00
2018-10-09T03:01:54.633Z,15.28
2018-10-09T03:02:58.737Z,14.45
2018-10-09T03:04:02.940Z,14.45
2018-10-09T03:05:07.298Z,16.00
2018-10-09T03:06:11.356Z,15.15
2018-10-09T03:07:15.447Z,15.75
2018-10-09T03:08:19.703Z,15.83
2018-10-09T03:09:23.733Z,15.63
2018-10-09T03:10:27.908Z,15.68
2018-10-09T03:11:32.023Z,15.15
2018-10-09T03:12:36.095Z,15.32
2018-10-09T03:13:40.313Z,16.60
2018-10-09T03:14:44.453Z,16.23
2018-10-09T03:15:48.478Z,15.38
2018-10-09T03:16:52.574Z,15.25
2018-10-09T03:17:56.746Z,15.00
2018-10-09T03:19:00.825Z,14.85
2018-10-09T03:20:04.939Z,15.55
2018-10-09T03:21:09.043Z,15.78
2018-10-09T03:22:13.177Z,15.90
2018-10-09T03:23:17.284Z,16.07
2018-10-09T03:24:21.397Z,16.73
2018-10-09T03:25:25.588Z,15.55
2018-10-09T03:26:29.685Z,16.05
2018-10-09T03:27:33.844Z,16.25
2018-10-09T03:28:37.926Z,16.60
2018-10-09T03:29:42.185Z,16.20
2018-10-09T03:30:46.659Z,15.80
2018-10-09T03:31:50.816Z,15.70
2018-10-09T03:32:54.998Z,16.05
2018-10-09T03:33:59.147Z,16.57
2018-10-09T03:35:03.353Z,16.48
2018-10-09T03:36:07.443Z,16.73
2018-10-09T03:37:11.611Z,15.83
2018-10-09T03:38:16.263Z,17.10
2018-10-09T03:39:20.770Z,16.30
2018-10-09T03:40:24.915Z,16.12
2018-10-09T03:41:29.019Z,17.00
2018-10-09T03:42:33.196Z,17.12
2018-10-09T03:43:37.432Z,16.57
2018-10-09T03:44:41.654Z,16.20
2018-10-09T03:45:45.764Z,15.50
2018-10-09T03:46:50.133Z,16.23
2018-10-09T03:47:54.507Z,16.30
2018-10-09T03:48:58.790Z,16.02
2018-10-09T03:50:03.146Z,16.23
2018-10-09T03:51:08.121Z,15.40
2018-10-09T03:52:12.372Z,16.25
2018-10-09T03:53:16.547Z,15.72
2018-10-09T03:54:23.402Z,16.02
2018-10-09T03:55:27.722Z,16.05
2018-10-09T03:56:31.845Z,16.65
2018-10-09T03:57:36.285Z,16.10
2018-10-09T03:58:40.503Z,15.93
2018-10-09T03:59:44.661Z,15.85
2018-10-09T04:00:48.876Z,16.27
2018-10-09T04:01:53.020Z,16.48
2018-10-09T04:02:57.204Z,17.77
2018-10-09T04:04:01.297Z,17.75
2018-10-09T04:05:05.503Z,16.30
2018-10-09T04:06:09.671Z,15.40
2018-10-09T04:07:13.883Z,16.20
2018-10-09T04:08:18.033Z,16.48
2018-10-09T04:09:22.101Z,15.45
2018-10-09T04:10:26.232Z,16.80
2018-10-09T04:11:30.313Z,15.72
2018-10-09T04:12:34.415Z,16.87
2018-10-09T04:13:38.491Z,16.30
2018-10-09T04:14:42.557Z,16.45
2018-10-09T04:15:46.648Z,15.93
2018-10-09T04:16:50.917Z,16.15
2018-10-09T04:17:55.033Z,16.60
2018-10-09T04:18:59.164Z,16.85
2018-10-09T04:20:03.331Z,16.32
2018-10-09T04:21:07.772Z,16.45
2018-10-09T04:22:16.432Z,15.50
2018-10-09T04:23:20.590Z,15.75
2018-10-09T04:24:24.702Z,16.25
2018-10-09T04:25:28.850Z,16.85
2018-10-09T04:26:32.945Z,16.42
2018-10-09T04:27:37.033Z,16.65
2018-10-09T04:28:41.148Z,14.95
2018-10-09T04:29:45.448Z,15.23
2018-10-09T04:30:49.610Z,14.75
2018-10-09T04:31:53.702Z,15.20
2018-10-09T04:32:57.771Z,15.93
2018-10-09T04:34:01.886Z,15.75
2018-10-09T04:35:06.069Z,14.87
2018-10-09T04:36:10.252Z,14.83
2018-10-09T04:37:14.328Z,14.85
2018-10-09T04:38:18.431Z,15.28
2018-10-09T04:39:22.589Z,15.80
2018-10-09T04:40:26.858Z,15.03
2018-10-09T04:41:30.899Z,15.10
2018-10-09T04:42:35.040Z,15.30
2018-10-09T04:43:39.071Z,15.60
2018-10-09T04:44:43.195Z,15.53
2018-10-09T04:45:47.290Z,15.43
2018-10-09T04:46:51.391Z,15.70
2018-10-09T04:47:55.943Z,15.65
2018-10-09T04:49:00.034Z,14.63
2018-10-09T04:50:04.207Z,15.72
2018-10-09T04:51:08.317Z,15.28
2018-10-09T04:52:12.368Z,15.75
2018-10-09T04:53:16.564Z,15.55
2018-10-09T04:54:20.740Z,16.02
2018-10-09T04:55:24.828Z,14.43
2018-10-09T04:56:29.029Z,14.98
2018-10-09T04:57:33.150Z,14.83
2018-10-09T04:58:37.268Z,14.95
2018-10-09T04:59:41.403Z,15.32
2018-10-09T05:00:45.612Z,15.08
2018-10-09T05:01:49.619Z,14.80
2018-10-09T05:02:53.748Z,14.18
2018-10-09T05:03:57.893Z,14.95
2018-10-09T05:05:02.096Z,14.30
2018-10-09T05:06:06.113Z,14.43
2018-10-09T05:07:10.251Z,14.50
2018-10-09T05:08:14.533Z,14.73
2018-10-09T05:09:18.711Z,14.87
2018-10-09T05:10:22.928Z,15.00
2018-10-09T05:11:27.060Z,14.43
2018-10-09T05:12:31.150Z,15.05
2018-10-09T05:13:35.288Z,15.55
2018-10-09T05:14:39.395Z,14.43
2018-10-09T05:15:43.469Z,14.85
2018-10-09T05:16:47.618Z,14.95
2018-10-09T05:17:51.922Z,15.08
2018-10-09T05:18:55.984Z,14.87
2018-10-09T05:20:00.249Z,15.43
2018-10-09T05:21:04.401Z,14.98
2018-10-09T05:22:08.555Z,14.95
2018-10-09T05:23:12.703Z,14.75
2018-10-09T05:24:16.743Z,14.68
2018-10-09T05:25:20.844Z,14.93
2018-10-09T05:26:25.083Z,16.02
2018-10-09T05:27:29.215Z,16.67
2018-10-09T05:28:33.375Z,15.68
2018-10-09T05:29:37.513Z,15.25
2018-10-09T05:30:41.609Z,16.10
2018-10-09T05:31:46.427Z,14.95
2018-10-09T05:32:50.538Z,15.98
2018-10-09T05:33:54.618Z,16.65
2018-10-09T05:34:58.753Z,15.63
2018-10-09T05:36:02.886Z,14.83
2018-10-09T05:37:07.065Z,15.00
2018-10-09T05:38:11.362Z,15.40
2018-10-09T05:39:15.508Z,15.18
2018-10-09T05:40:19.594Z,15.10
2018-10-09T05:41:23.769Z,15.00
2018-10-09T05:42:27.893Z,15.38
2018-10-09T05:43:31.992Z,14.30
2018-10-09T05:44:36.212Z,15.13
2018-10-09T05:45:41.111Z,15.30
2018-10-09T05:46:45.252Z,14.58
2018-10-09T05:47:49.573Z,14.93
2018-10-09T05:48:53.688Z,15.18
2018-10-09T05:49:57.793Z,15.80
2018-10-09T05:51:01.901Z,15.03
2018-10-09T05:52:06.235Z,14.47
2018-10-09T05:53:10.385Z,14.15
2018-10-09T05:54:14.541Z,14.65
2018-10-09T05:55:18.888Z,14.45
2018-10-09T05:56:22.978Z,14.40
2018-10-09T05:57:27.159Z,15.48
2018-10-09T05:58:31.300Z,15.18
2018-10-09T05:59:35.367Z,14.00
2018-10-09T06:00:39.474Z,14.98
2018-10-09T06:01:43.516Z,14.95
2018-10-09T06:02:47.691Z,15.28
2018-10-09T06:03:51.772Z,15.40
2018-10-09T06:04:55.969Z,16.17
2018-10-09T06:06:00.127Z,14.95
2018-10-09T06:07:04.044Z,16.25
2018-10-09T06:08:08.942Z,15.78
2018-10-09T06:09:13.202Z,15.98
2018-10-09T06:10:17.359Z,15.60
2018-10-09T06:11:21.519Z,15.60
2018-10-09T06:12:25.698Z,15.18
2018-10-09T06:13:29.828Z,14.63
2018-10-09T06:14:33.888Z,14.93
2018-10-09T06:15:38.123Z,15.85
2018-10-09T06:16:42.136Z,15.55
2018-10-09T06:17:46.261Z,16.87
2018-10-09T06:18:50.359Z,14.85
2018-10-09T06:19:54.444Z,15.58
2018-10-09T06:20:58.475Z,15.98
2018-10-09T06:22:02.622Z,15.83
2018-10-09T06:23:07.111Z,15.25
2018-10-09T06:24:11.263Z,14.83
2018-10-09T06:25:15.471Z,14.47
2018-10-09T06:26:19.569Z,15.43
2018-10-09T06:27:23.741Z,15.55
2018-10-09T06:28:27.904Z,14.90
2018-10-09T06:29:31.935Z,15.95
2018-10-09T06:30:36.476Z,14.98
2018-10-09T06:31:40.574Z,15.38
2018-10-09T06:32:44.634Z,15.32
2018-10-09T06:33:48.719Z,14.85
2018-10-09T06:34:52.756Z,15.80
2018-10-09T06:35:57.150Z,15.55
2018-10-09T06:37:01.381Z,15.35
2018-10-09T06:38:05.417Z,15.00
2018-10-09T06:39:10.883Z,15.55
2018-10-09T06:40:14.948Z,15.10
2018-10-09T06:41:19.269Z,15.68
2018-10-09T06:42:23.397Z,16.30
2018-10-09T06:43:27.522Z,15.80
2018-10-09T06:44:31.611Z,16.17
2018-10-09T06:45:35.756Z,16.05
2018-10-09T06:46:39.895Z,16.10
2018-10-09T06:47:44.180Z,17.12
2018-10-09T06:48:49.232Z,17.20
2018-10-09T06:49:53.365Z,15.93
2018-10-09T06:50:57.961Z,17.52
2018-10-09T06:52:02.189Z,15.85
2018-10-09T06:53:06.406Z,15.93
2018-10-09T06:54:10.576Z,15.70
2018-10-09T06:55:14.599Z,15.63
2018-10-09T06:56:18.792Z,17.57
2018-10-09T06:57:22.850Z,17.02
2018-10-09T06:58:27.072Z,16.37
2018-10-09T06:59:31.142Z,15.93
2018-10-09T07:00:35.210Z,16.25
2018-10-09T07:01:39.310Z,17.07
2018-10-09T07:02:43.409Z,16.90
2018-10-09T07:03:47.591Z,16.17
2018-10-09T07:04:51.777Z,16.25
2018-10-09T07:05:55.899Z,17.23
2018-10-09T07:07:00.043Z,17.60
2018-10-09T07:08:04.187Z,17.52
2018-10-09T07:09:09.967Z,17.27
2018-10-09T07:10:14.393Z,18.12
2018-10-09T07:11:18.726Z,16.77
2018-10-09T07:12:22.813Z,16.93
2018-10-09T07:13:27.082Z,17.30
2018-10-09T07:14:31.203Z,17.55
2018-10-09T07:15:35.301Z,17.02
2018-10-09T07:16:39.450Z,17.50
2018-10-09T07:17:43.595Z,17.32
2018-10-09T07:18:47.686Z,17.62
2018-10-09T07:19:52.030Z,17.25
2018-10-09T07:20:56.125Z,18.25
2018-10-09T07:22:00.251Z,18.30
2018-10-09T07:23:04.326Z,18.17
2018-10-09T07:24:08.519Z,17.57
2018-10-09T07:25:12.640Z,17.42
2018-10-09T07:26:16.794Z,18.30
2018-10-09T07:27:20.961Z,17.50
2018-10-09T07:28:25.008Z,18.12
2018-10-09T07:29:29.205Z,17.50
2018-10-09T07:30:33.376Z,17.23
2018-10-09T07:31:37.916Z,17.57
2018-10-09T07:32:42.157Z,17.85
2018-10-09T07:33:46.335Z,17.57
2018-10-09T07:34:50.478Z,17.20
2018-10-09T07:35:54.598Z,17.98
2018-10-09T07:36:58.862Z,18.05
2018-10-09T07:38:03.058Z,17.50
2018-10-09T07:39:09.692Z,17.23
2018-10-09T07:40:13.807Z,18.17
2018-10-09T07:41:17.874Z,16.97
2018-10-09T07:42:22.042Z,17.40
2018-10-09T07:43:26.180Z,17.05
2018-10-09T07:44:30.506Z,16.42
2018-10-09T07:45:34.634Z,16.17
2018-10-09T07:46:38.649Z,17.48
2018-10-09T07:47:42.754Z,17.77
2018-10-09T07:48:46.958Z,17.57
2018-10-09T07:49:53.136Z,16.67
2018-10-09T07:51:00.366Z,16.50
2018-10-09T07:52:07.166Z,17.48
2018-10-09T07:53:13.554Z,15.50
2018-10-09T07:54:20.579Z,16.07
2018-10-09T07:55:28.196Z,15.90
2018-10-09T07:56:34.932Z,15.85
2018-10-09T07:57:41.934Z,15.48
2018-10-09T07:58:48.390Z,15.72
2018-10-09T07:59:55.045Z,15.80
2018-10-09T08:01:00.956Z,16.17
2018-10-09T08:02:07.393Z,16.05
2018-10-09T08:03:14.392Z,16.62
2018-10-09T08:04:21.516Z,16.60
2018-10-09T08:05:28.349Z,16.35
2018-10-09T08:06:35.342Z,14.43
2018-10-09T08:07:41.965Z,16.17
2018-10-09T08:08:48.987Z,15.58
2018-10-09T08:09:53.645Z,15.68
2018-10-09T08:11:00.779Z,16.20
2018-10-09T08:12:05.078Z,14.70
2018-10-09T08:13:09.368Z,15.90
2018-10-09T08:14:16.265Z,14.73
2018-10-09T08:15:23.114Z,15.68
2018-10-09T08:16:29.887Z,13.62
2018-10-09T08:17:36.765Z,15.70
2018-10-09T08:18:43.015Z,15.83
2018-10-09T08:19:50.137Z,15.45
2018-10-09T08:20:57.171Z,15.23
2018-10-09T08:22:03.745Z,15.53
2018-10-09T08:23:11.090Z,15.85
2018-10-09T08:24:17.856Z,15.93
2018-10-09T08:25:25.052Z,15.68
2018-10-09T08:26:31.622Z,14.60
2018-10-09T08:27:38.148Z,16.15
2018-10-09T08:28:45.235Z,15.78
2018-10-09T08:29:51.886Z,16.30
2018-10-09T08:30:59.206Z,16.65
2018-10-09T08:32:06.378Z,16.02
2018-10-09T08:33:12.245Z,15.28
2018-10-09T08:34:18.853Z,16.37
2018-10-09T08:35:24.880Z,16.07
2018-10-09T08:36:31.545Z,15.72
2018-10-09T08:37:37.961Z,16.30
2018-10-09T08:38:44.849Z,18.32
2018-10-09T08:39:52.235Z,18.30
2018-10-09T08:40:59.501Z,18.17
2018-10-09T08:42:06.312Z,16.87
2018-10-09T08:43:12.007Z,16.77
2018-10-09T08:44:16.146Z,15.65
2018-10-09T08:45:20.322Z,15.60
2018-10-09T08:46:24.492Z,15.98
2018-10-09T08:47:28.546Z,15.90
2018-10-09T08:48:32.602Z,16.00
2018-10-09T08:49:36.739Z,14.68
2018-10-09T08:50:40.848Z,15.63
2018-10-09T08:51:45.305Z,16.52
2018-10-09T08:52:49.485Z,15.90
2018-10-09T08:53:53.642Z,15.40
2018-10-09T08:54:57.825Z,15.38
2018-10-09T08:56:01.986Z,15.90
2018-10-09T08:57:06.356Z,16.52
2018-10-09T08:58:10.530Z,14.75
2018-10-09T08:59:14.664Z,14.83
2018-10-09T09:00:18.824Z,15.23
2018-10-09T09:01:22.904Z,14.55
2018-10-09T09:02:27.035Z,14.98
2018-10-09T09:03:31.344Z,15.32
2018-10-09T09:04:35.820Z,15.75
2018-10-09T09:05:39.956Z,15.80
2018-10-09T09:06:44.066Z,14.58
2018-10-09T09:07:48.352Z,15.43
2018-10-09T09:08:52.562Z,15.20
2018-10-09T09:09:56.665Z,15.60
2018-10-09T09:11:01.098Z,15.48
2018-10-09T09:12:05.422Z,15.68
2018-10-09T09:13:09.481Z,15.55
2018-10-09T09:14:13.768Z,16.97
2018-10-09T09:15:17.956Z,16.10
2018-10-09T09:16:22.113Z,16.25
2018-10-09T09:17:26.286Z,15.88
2018-10-09T09:18:30.588Z,16.73
2018-10-09T09:19:34.970Z,16.80
2018-10-09T09:20:39.203Z,17.15
2018-10-09T09:21:43.251Z,16.80
2018-10-09T09:22:47.387Z,17.15
2018-10-09T09:23:51.573Z,16.60
2018-10-09T09:24:55.731Z,16.73
2018-10-09T09:26:00.015Z,15.98
2018-10-09T09:27:04.383Z,17.20
2018-10-09T09:28:08.608Z,18.02
2018-10-09T09:29:12.737Z,17.25
2018-10-09T09:30:16.907Z,16.67
2018-10-09T09:31:21.102Z,16.55
2018-10-09T09:32:25.311Z,16.48
2018-10-09T09:33:29.512Z,15.90
2018-10-09T09:34:33.628Z,16.95
2018-10-09T09:35:37.715Z,17.67
2018-10-09T09:36:48.547Z,17.42
2018-10-09T09:37:52.675Z,17.62
2018-10-09T09:38:56.869Z,17.65
2018-10-09T09:40:01.070Z,17.27
2018-10-09T09:41:05.205Z,20.10
2018-10-09T09:42:09.419Z,19.12
2018-10-09T09:43:13.600Z,17.98
2018-10-09T09:44:17.850Z,17.82
2018-10-09T09:45:22.016Z,17.32
2018-10-09T09:46:26.226Z,16.95
2018-10-09T09:47:30.430Z,18.02
2018-10-09T09:48:34.661Z,17.70
2018-10-09T09:49:38.913Z,16.97
2018-10-09T09:50:43.052Z,17.35
2018-10-09T09:51:47.293Z,18.02
2018-10-09T09:52:51.549Z,16.52
2018-10-09T09:53:55.677Z,17.05
2018-10-09T09:54:59.792Z,17.05
2018-10-09T09:56:03.968Z,17.37
2018-10-09T09:57:08.287Z,16.70
2018-10-09T09:58:12.558Z,16.60
2018-10-09T09:59:16.694Z,17.90
2018-10-09T10:00:26.350Z,17.67
2018-10-09T10:01:35.776Z,17.80
2018-10-09T10:02:40.024Z,16.57
2018-10-09T10:03:44.290Z,16.45
2018-10-09T10:04:48.309Z,16.95
2018-10-09T10:05:52.500Z,17.42
2018-10-09T10:06:56.604Z,16.65
2018-10-09T10:08:01.010Z,16.75
2018-10-09T10:09:06.622Z,17.17
2018-10-09T10:10:10.825Z,16.80
2018-10-09T10:11:15.111Z,17.02
2018-10-09T10:12:19.278Z,17.55
2018-10-09T10:13:23.429Z,18.73
2018-10-09T10:14:27.593Z,18.35
2018-10-09T10:15:31.745Z,17.48
2018-10-09T10:16:35.848Z,17.40
2018-10-09T10:17:40.425Z,17.17
2018-10-09T10:18:44.876Z,17.12
2018-10-09T10:19:49.049Z,16.97
2018-10-09T10:20:53.214Z,16.93
2018-10-09T10:21:57.283Z,17.55
2018-10-09T10:23:01.436Z,17.52
2018-10-09T10:24:05.628Z,17.45
2018-10-09T10:25:09.765Z,15.63
2018-10-09T10:26:13.816Z,17.25
2018-10-09T10:27:17.948Z,16.70
2018-10-09T10:28:22.050Z,17.42
2018-10-09T10:29:26.132Z,16.15
2018-10-09T10:30:30.261Z,16.05
2018-10-09T10:31:34.496Z,16.50
2018-10-09T10:32:38.585Z,15.70
2018-10-09T10:33:42.767Z,16.30
2018-10-09T10:34:46.932Z,15.83
2018-10-09T10:35:50.985Z,16.65
2018-10-09T10:36:55.206Z,16.42
2018-10-09T10:37:59.275Z,15.55
2018-10-09T10:39:04.263Z,16.10
2018-10-09T10:40:08.521Z,14.87
2018-10-09T10:41:12.722Z,16.20
2018-10-09T10:42:16.945Z,15.58
2018-10-09T10:43:21.007Z,15.58
2018-10-09T10:44:25.407Z,14.90
2018-10-09T10:45:29.682Z,13.88
2018-10-09T10:46:39.258Z,14.90
2018-10-09T10:47:43.397Z,14.45
2018-10-09T10:48:58.650Z,14.60
2018-10-09T10:50:02.961Z,14.30
2018-10-09T10:51:07.080Z,13.70
2018-10-09T10:52:11.169Z,14.00
2018-10-09T10:53:15.326Z,14.68
2018-10-09T10:54:19.523Z,13.48
2018-10-09T10:55:23.621Z,15.38
2018-10-09T10:56:28.212Z,14.15
2018-10-09T10:57:32.377Z,14.43
2018-10-09T10:58:36.512Z,13.85
2018-10-09T10:59:40.765Z,14.23
2018-10-09T11:00:44.918Z,14.58
2018-10-09T11:01:49.097Z,14.00
2018-10-09T11:02:53.214Z,14.05
2018-10-09T11:03:57.644Z,15.13
2018-10-09T11:05:01.768Z,13.75
2018-10-09T11:06:05.894Z,14.68
2018-10-09T11:07:10.367Z,15.60
2018-10-09T11:08:14.526Z,14.00
2018-10-09T11:09:18.567Z,15.10
2018-10-09T11:10:22.677Z,14.70
2018-10-09T11:11:26.838Z,14.70
2018-10-09T11:12:30.931Z,14.75
2018-10-09T11:13:35.109Z,14.15
2018-10-09T11:14:39.385Z,14.47
2018-10-09T11:15:43.500Z,14.47
2018-10-09T11:16:47.816Z,14.30
2018-10-09T11:17:51.946Z,14.03
2018-10-09T11:18:56.633Z,14.83
2018-10-09T11:20:07.411Z,14.50
2018-10-09T11:21:11.804Z,14.13
2018-10-09T11:22:15.849Z,14.05
2018-10-09T11:23:20.347Z,13.80
2018-10-09T11:24:24.459Z,14.05
2018-10-09T11:25:29.018Z,14.93
2018-10-09T11:26:33.127Z,14.15
2018-10-09T11:27:38.068Z,14.60
2018-10-09T11:28:42.391Z,14.03
2018-10-09T11:29:46.713Z,14.63
2018-10-09T11:30:50.925Z,13.57
2018-10-09T11:31:55.050Z,13.23
2018-10-09T11:32:59.109Z,14.27
2018-10-09T11:34:03.337Z,14.33
2018-10-09T11:35:07.568Z,13.70
2018-10-09T11:36:11.712Z,13.55
2018-10-09T11:37:15.994Z,13.45
2018-10-09T11:38:20.073Z,12.73
2018-10-09T11:39:24.233Z,14.53
2018-10-09T11:40:28.343Z,13.87
2018-10-09T11:41:32.436Z,13.83
2018-10-09T11:42:36.604Z,13.30
2018-10-09T11:43:40.784Z,13.70
2018-10-09T11:44:44.972Z,13.30
2018-10-09T11:45:49.100Z,14.33
2018-10-09T11:46:53.269Z,13.87
2018-10-09T11:47:57.548Z,14.43
2018-10-09T11:49:01.630Z,14.80
2018-10-09T11:50:06.458Z,15.13
2018-10-09T11:51:10.553Z,14.57
2018-10-09T11:52:14.657Z,13.83
2018-10-09T11:53:18.873Z,13.60
2018-10-09T11:54:23.225Z,12.83
2018-10-09T11:55:27.330Z,13.83
2018-10-09T11:56:31.508Z,14.07
2018-10-09T11:57:35.765Z,13.83
2018-10-09T11:58:39.936Z,13.03
2018-10-09T11:59:44.111Z,13.30
2018-10-09T12:00:49.555Z,12.83
2018-10-09T12:01:54.328Z,13.65
2018-10-09T12:02:58.554Z,12.93
2018-10-09T12:04:02.671Z,12.55
2018-10-09T12:05:06.858Z,12.15
2018-10-09T12:06:11.096Z,12.58
2018-10-09T12:07:15.304Z,12.63
2018-10-09T12:08:19.517Z,12.43
2018-10-09T12:09:23.727Z,11.33
2018-10-09T12:10:28.316Z,12.47
2018-10-09T12:11:32.865Z,10.50
2018-10-09T12:12:37.163Z,11.33
2018-10-09T12:13:41.567Z,10.20
2018-10-09T12:14:46.040Z,11.03
2018-10-09T12:15:50.389Z,10.30
2018-10-09T12:16:54.532Z,10.77
2018-10-09T12:17:58.733Z,9.80
2018-10-09T12:19:02.917Z,10.13
2018-10-09T12:20:07.005Z,10.13
2018-10-09T12:21:11.146Z,11.03
2018-10-09T12:22:16.213Z,10.77
2018-10-09T12:23:20.615Z,10.03
2018-10-09T12:24:24.970Z,10.63
2018-10-09T12:25:30.703Z,9.97
2018-10-09T12:26:35.305Z,11.57
2018-10-09T12:27:39.472Z,10.90
2018-10-09T12:28:43.732Z,10.88
2018-10-09T12:29:50.820Z,10.95
2018-10-09T12:30:55.012Z,10.40
2018-10-09T12:31:59.161Z,10.23
2018-10-09T12:33:03.675Z,10.60
2018-10-09T12:34:08.588Z,10.30
2018-10-09T12:35:13.149Z,10.53
2018-10-09T12:36:18.159Z,10.60
2018-10-09T12:37:22.377Z,10.70
2018-10-09T12:38:26.674Z,11.18
2018-10-09T12:39:30.790Z,10.03
2018-10-09T12:40:34.935Z,10.18
2018-10-09T12:41:39.130Z,9.70
2018-10-09T12:42:43.197Z,10.00
2018-10-09T12:43:47.410Z,10.40
2018-10-09T12:44:51.553Z,9.43
2018-10-09T12:45:55.803Z,9.93
2018-10-09T12:46:59.905Z,10.20
2018-10-09T12:48:04.149Z,10.47
2018-10-09T12:49:08.527Z,11.10
2018-10-09T12:50:12.636Z,10.53
2018-10-09T12:51:16.911Z,10.50
2018-10-09T12:52:20.997Z,10.70
2018-10-09T12:53:25.161Z,10.07
2018-10-09T12:54:29.582Z,10.53
2018-10-09T12:55:33.761Z,10.67
2018-10-09T12:56:37.958Z,10.67
2018-10-09T12:57:42.077Z,10.73
2018-10-09T12:58:46.365Z,9.70
2018-10-09T12:59:50.415Z,9.63
2018-10-09T13:00:54.652Z,10.33
2018-10-09T13:01:58.826Z,11.07
2018-10-09T13:03:03.004Z,9.63
2018-10-09T13:04:07.320Z,9.87
2018-10-09T13:05:11.481Z,10.67
2018-10-09T13:06:16.065Z,10.43
2018-10-09T13:07:20.195Z,9.70
2018-10-09T13:08:24.250Z,9.47
2018-10-09T13:09:28.423Z,10.30
2018-10-09T13:10:32.605Z,10.53
2018-10-09T13:11:37.016Z,10.27
2018-10-09T13:12:41.824Z,10.30
2018-10-09T13:13:46.239Z,10.30
2018-10-09T13:14:50.464Z,10.17
2018-10-09T13:15:54.577Z,10.50
2018-10-09T13:16:59.335Z,10.50
2018-10-09T13:18:03.485Z,9.50
2018-10-09T13:19:24.134Z,11.10
2018-10-09T13:20:28.490Z,9.37
2018-10-09T13:21:49.883Z,10.40
2018-10-09T13:22:57.779Z,10.27
2018-10-09T13:24:01.846Z,9.87
2018-10-09T13:25:06.300Z,10.33
2018-10-09T13:26:10.404Z,10.87
2018-10-09T13:27:14.814Z,10.53
2018-10-09T13:28:18.852Z,10.37
2018-10-09T13:29:22.919Z,10.30
2018-10-09T13:30:27.069Z,10.50
2018-10-09T13:31:31.159Z,10.27
2018-10-09T13:32:35.312Z,10.43
2018-10-09T13:33:39.415Z,10.37
2018-10-09T13:34:43.779Z,10.57
2018-10-09T13:35:48.060Z,10.90
2018-10-09T13:36:52.220Z,9.80
2018-10-09T13:37:56.522Z,9.80
2018-10-09T13:39:00.804Z,9.77
2018-10-09T13:40:05.022Z,10.37
2018-10-09T13:41:09.197Z,9.87
2018-10-09T13:42:13.344Z,9.93
2018-10-09T13:43:17.824Z,9.80
2018-10-09T13:44:21.964Z,10.20
2018-10-09T13:45:26.176Z,9.53
2018-10-09T13:46:30.371Z,9.63
2018-10-09T13:47:34.699Z,9.57
2018-10-09T13:48:38.771Z,9.60
2018-10-09T13:49:42.920Z,9.10
2018-10-09T13:50:47.205Z,9.67
2018-10-09T13:51:51.632Z,9.70